« Back
NWS Peachtree City, Ga » Text Product » ATL Terminal Aerodrome Forecast


Printer-friendly Version
Current Version              Previous Versions:   1  2  3  4  5  6  7  8  9  

Terminal Aerodrome Forecast

683
FTUS42 KFFC 251357 AAA
TAFATL
TAF AMD
KATL 251357Z 2514/2618 28005KT P6SM SCT120
     FM251600 26004KT P6SM SCT035
     FM251800 24006KT P6SM VCSH SCT050
      TEMPO 2518/2522 4SM -TSRA BR BKN035CB
     FM260100 24003KT P6SM SCT100
     FM261500 24006KT P6SM SCT035=

USA.gov is the U.S. government's official web portal to all federal, state and local government web resources and services.